Floreffe, Belgium
Current Conditions -  °F | °C
As of 2:20 PM on Friday 28 Nov 2014 (Local Time) from EBCI Reporting Station
Few Clouds Few Clouds  
Wind Chill: 55°   Ceiling: Unl
Heat Index: 55°   Visibility: 6mi
Dew Point: 43°   Wind: 10mph
Humidity: 63%   Direction: 120°ESE
Pressure: 29.68"   Gusts: NA
Location:  50.43°N, 4.76°E
Report Text: EBCI 281320Z 12009KT 080V150 9999 FEW035 13/06 Q1005 NOSIG
Loading
Personal Weather Stations






























Interactive Weather Map New forecast layout! Learn more

10-Day Weather Forecast

Advertisements
Track Severe Weather on mobile